EDT,Max TemperatureF,Mean TemperatureF,Min TemperatureF,Max Dew PointF,MeanDew PointF,Min DewpointF,Max Humidity, Mean Humidity, Min Humidity, Max Sea Level PressureIn, Mean Sea Level PressureIn, Min Sea Level PressureIn, Max VisibilityMiles, Mean VisibilityMiles, Min VisibilityMiles, Max Wind SpeedMPH, Mean Wind SpeedMPH, Max Gust SpeedMPH,PrecipitationIn, CloudCover, Events, WindDirDegrees
2013-3-1,41,38,35,25,23,20,59,53,46,29.91,29.84,29.77,10,10,10,12,5,20,0.00,8,,337
2013-3-2,37,35,32,21,18,15,61,53,44,29.90,29.86,29.82,10,10,10,10,5,16,0.00,8,,320
2013-3-3,44,36,28,17,14,10,58,46,33,29.94,29.88,29.81,10,10,10,14,7,23,0.00,3,,317
2013-3-4,50,38,25,10,8,4,46,31,16,30.05,30.00,29.94,10,10,10,13,6,21,0.00,0,,315
2013-3-5,50,41,31,34,24,11,92,60,27,30.06,29.91,29.74,10,7,0,15,4,18,0.16,7,Fog-Rain-Snow,104
2013-3-6,45,39,32,34,31,30,100,88,76,30.02,29.70,29.57,10,3,0,18,12,28,T,7,Fog-Rain-Snow,360
2013-3-7,45,40,34,28,24,22,82,61,40,30.20,30.12,30.01,10,10,10,14,8,23,0.00,4,,340
2013-3-8,45,40,34,25,23,20,69,56,43,30.29,30.23,30.18,10,10,10,20,9,32,0.00,2,,328
2013-3-9,60,45,29,25,22,13,78,49,19,30.34,30.29,30.25,10,10,10,8,1,12,0.00,0,,297
2013-3-10,64,46,27,29,24,20,92,56,20,30.31,30.25,30.19,10,10,10,15,4,20,0.00,0,,172
2013-3-11,60,49,38,49,37,24,72,56,39,30.21,30.06,29.89,10,10,10,16,6,22,0.01,3,Rain,183
2013-3-12,64,52,39,55,49,26,100,70,40,29.95,29.78,29.71,10,6,0,15,6,22,1.32,6,Fog-Rain,216
2013-3-13,50,41,32,28,21,13,72,50,28,30.10,29.98,29.91,10,10,10,18,8,30,0.00,2,,272
2013-3-14,49,39,29,14,12,9,47,33,19,30.17,30.11,30.05,10,10,10,18,8,33,0.00,0,,298
2013-3-15,59,45,31,31,22,11,50,39,28,30.12,29.95,29.79,10,10,10,12,7,18,0.00,0,,214
2013-3-16,67,54,41,54,42,30,89,69,48,29.87,29.72,29.61,10,8,2,18,4,25,0.24,5,Rain,210
2013-3-17,41,37,32,36,33,30,92,86,79,30.27,30.12,29.89,9,5,2,13,5,16,0.06,7,Rain-Snow,58
2013-3-18,33,33,32,32,30,30,100,96,92,30.28,30.16,29.89,10,3,1,10,3,14,0.32,8,Rain-Snow,46
2013-3-19,60,46,32,37,24,0,100,57,13,29.96,29.82,29.73,10,5,0,21,7,35,0.31,3,Fog,253
2013-3-20,53,43,32,13,8,2,35,26,16,30.02,29.90,29.76,10,10,10,16,5,26,0.00,1,,248
2013-3-21,39,32,24,26,11,5,64,46,27,29.94,29.82,29.77,10,10,10,17,8,24,0.00,4,,323
2013-3-22,51,37,23,15,11,7,50,36,21,30.00,29.95,29.88,10,10,10,17,3,23,0.00,0,,281
2013-3-23,57,42,27,20,15,12,56,37,18,30.05,29.97,29.89,10,10,10,14,3,18,0.00,1,,180
2013-3-24,40,36,31,31,26,18,92,65,38,29.99,29.78,29.64,10,4,0,13,6,16,T,5,Fog-Rain-Snow,37
2013-3-25,39,35,31,34,31,25,100,82,64,29.72,29.57,29.52,10,4,0,7,1,10,0.68,8,Fog-Rain-Snow,215
2013-3-26,46,39,31,28,25,22,78,60,42,30.04,29.88,29.73,10,10,10,16,5,28,T,5,,319
2013-3-27,48,41,33,26,22,19,70,51,31,30.17,30.10,30.05,10,10,10,20,7,30,0.00,1,,310
2013-3-28,50,42,33,24,22,20,56,45,34,30.25,30.18,30.13,10,10,10,18,6,26,0.00,3,,309
2013-3-29,58,46,34,28,23,19,69,47,24,30.29,30.22,30.14,10,10,10,12,4,16,0.00,6,,296
2013-3-30,62,46,30,27,24,22,72,47,22,30.23,30.16,30.08,10,10,10,13,3,21,0.00,1,,248
2013-3-31,54,48,41,48,39,26,93,71,49,30.08,29.88,29.76,10,7,2,10,2,13,0.03,5,Rain,222